Check out our new BloomSky Weather System.

Active alerts


No alerts


Thunder radar  blitzortung!


Rain radar more information rain snow radar


Visit our other weather sites:

Template documentation
and downloads

And another site



Weather Underground History page Text

Daily Summary for April 6, 2017 Units:  Metric    English   Both
« Previous Day
Next Day »
Daily Weekly Monthly Yearly Custom
  High: Low: Average:
Temperature: -17.8 °C 8.6 °C 17.3 °C
Dew Point: -17.8 °C 1.7 °C 6.1 °C
Humidity: Humidity % 22 % 54 %
Wind Speed: 0 km/h 0 km/h 1.4 km/h
Wind Gust: 0 km/h - -
Wind:- - WSW
Pressure: 0 hPa 1019.9 hPa -
Precipitation: 0 mm    
Historical Graphs
 
 
Tabular Data for April 6, 2017
Time Temperature Dew Point Pressure Wind Wind Speed Wind Gust Humidity Rainfall Rate (Hourly)
-17.8 °C -17.8 °C 0 hPa Calm     Humidity % 0 mm
00:02 12.4 °C 7.5 °C 1019.9 hPa Calm     72 % 0 mm
00:07 12.4 °C 7.5 °C 1019.9 hPa Calm     72 % 0 mm
00:12 12.3 °C 7.6 °C 1019.9 hPa Calm     73 % 0 mm
00:17 12.2 °C 7.7 °C 1019.9 hPa Calm     74 % 0 mm
00:22 12.2 °C 7.9 °C 1019.9 hPa Calm     75 % 0 mm
00:27 12.1 °C 8 °C 1019.9 hPa Calm     76 % 0 mm
00:32 12.1 °C 8.2 °C 1019.9 hPa Calm   1.6 km/h 77 % 0 mm
00:37 12.2 °C 8.3 °C 1019.9 hPa Calm   1.6 km/h 77 % 0 mm
00:42 12.2 °C 8.3 °C 1019.9 hPa Calm   1.6 km/h 77 % 0 mm
00:47 12.1 °C 8.2 °C 1020.2 hPa Calm   1.6 km/h 77 % 0 mm
00:52 12 °C 8.1 °C 1019.9 hPa Calm   1.6 km/h 77 % 0 mm
00:57 11.9 °C 8 °C 1020.2 hPa Calm   1.6 km/h 77 % 0 mm
01:02 11.8 °C 8.1 °C 1020.5 hPa Calm   1.6 km/h 78 % 0 mm
01:07 11.8 °C 8.1 °C 1020.2 hPa Calm   1.6 km/h 78 % 0 mm
01:12 11.7 °C 8 °C 1020.5 hPa Calm   1.6 km/h 78 % 0 mm
01:17 11.6 °C 7.7 °C 1020.5 hPa Calm   1.6 km/h 77 % 0 mm
01:22 11.3 °C 7.6 °C 1020.5 hPa Calm     78 % 0 mm
01:27 11.2 °C 7.7 °C 1020.5 hPa Calm     79 % 0 mm
01:32 11.2 °C 7.9 °C 1020.5 hPa Calm     80 % 0 mm
01:37 11.2 °C 8.1 °C 1020.5 hPa Calm     81 % 0 mm
01:42 11.2 °C 8.1 °C 1020.5 hPa Calm     81 % 0 mm
01:47 11.2 °C 8.2 °C 1020.5 hPa Calm     82 % 0 mm
01:52 11.2 °C 8.1 °C 1020.5 hPa Calm     81 % 0 mm
01:57 11.1 °C 8 °C 1020.5 hPa Calm     81 % 0 mm
02:02 10.9 °C 7.9 °C 1020.5 hPa Calm     82 % 0 mm
02:07 10.9 °C 8.1 °C 1020.2 hPa Calm   1.6 km/h 83 % 0 mm
02:12 10.9 °C 7.9 °C 1020.2 hPa Calm   1.6 km/h 82 % 0 mm
02:17 10.9 °C 7.9 °C 1020.2 hPa Calm   1.6 km/h 82 % 0 mm
02:22 10.8 °C 8 °C 1020.2 hPa Calm   1.6 km/h 83 % 0 mm
02:27 10.7 °C 7.9 °C 1020.2 hPa Calm     83 % 0 mm
02:32 10.6 °C 7.8 °C 1020.5 hPa Calm     83 % 0 mm
02:37 10.5 °C 7.7 °C 1020.5 hPa Calm     83 % 0 mm
02:42 10.4 °C 7.8 °C 1020.2 hPa Calm   1.6 km/h 84 % 0 mm
02:47 10.6 °C 8 °C 1020.2 hPa Calm   1.6 km/h 84 % 0 mm
02:52 10.4 °C 7.6 °C 1020.5 hPa Calm   1.6 km/h 83 % 0 mm
02:57 10.2 °C 7.4 °C 1020.5 hPa Calm   1.6 km/h 83 % 0 mm
03:02 10.1 °C 7.7 °C 1020.5 hPa Calm     85 % 0 mm
03:07 10.1 °C 7.7 °C 1020.5 hPa Calm     85 % 0 mm
03:12 10 °C 7.8 °C 1020.5 hPa Calm     86 % 0 mm
03:17 10.1 °C 7.9 °C 1020.5 hPa Calm     86 % 0 mm
03:22 9.9 °C 7.5 °C 1020.5 hPa Calm     85 % 0 mm
03:27 9.8 °C 7.6 °C 1020.5 hPa Calm     86 % 0 mm
03:32 9.7 °C 7.5 °C 1020.5 hPa Calm     86 % 0 mm
03:37 9.6 °C 7.5 °C 1020.5 hPa Calm     87 % 0 mm
03:42 9.6 °C 7.5 °C 1020.5 hPa Calm     87 % 0 mm
03:47 9.6 °C 7.5 °C 1020.5 hPa Calm   1.6 km/h 87 % 0 mm
03:52 9.6 °C 7.5 °C 1020.5 hPa Calm   1.6 km/h 87 % 0 mm
03:57 9.6 °C 7.5 °C 1020.5 hPa Calm   1.6 km/h 87 % 0 mm
04:02 9.6 °C 7.5 °C 1020.5 hPa Calm   1.6 km/h 87 % 0 mm
04:07 9.6 °C 7.5 °C 1020.5 hPa Calm   1.6 km/h 87 % 0 mm
04:12 9.5 °C 7.4 °C 1020.5 hPa Calm   1.6 km/h 87 % 0 mm
04:17 9.3 °C 7.2 °C 1020.5 hPa Calm     87 % 0 mm
04:19 9.3 °C 7.2 °C 1020.5 hPa Calm     87 % 0 mm
04:24 9.3 °C 7.2 °C 1020.5 hPa Calm     87 % 0 mm
04:29 9.2 °C 7.3 °C 1020.5 hPa Calm     88 % 0 mm
04:34 9.2 °C 7.3 °C 1020.5 hPa Calm     88 % 0 mm
04:39 9.1 °C 7.2 °C 1020.9 hPa Calm     88 % 0 mm
04:44 9.1 °C 7.4 °C 1020.9 hPa Calm     89 % 0 mm
04:49 9.2 °C 7.5 °C 1020.9 hPa Calm     89 % 0 mm
04:54 9.4 °C 7.7 °C 1020.9 hPa Calm   1.6 km/h 89 % 0 mm
04:59 9.3 °C 7.6 °C 1020.9 hPa Calm   1.6 km/h 89 % 0 mm
05:04 9.2 °C 7.3 °C 1020.9 hPa Calm   1.6 km/h 88 % 0 mm
05:09 9 °C 7.3 °C 1020.9 hPa Calm     89 % 0 mm
05:14 8.8 °C 7.1 °C 1020.9 hPa Calm     89 % 0 mm
05:19 8.7 °C 7.2 °C 1020.9 hPa Calm     90 % 0 mm
05:20 8.7 °C 7.2 °C 1020.9 hPa Calm     90 % 0 mm
05:25 8.7 °C 7.2 °C 1020.9 hPa Calm     90 % 0 mm
05:30 8.8 °C 7.2 °C 1020.9 hPa Calm     90 % 0 mm
05:35 8.8 °C 7.4 °C 1020.9 hPa Calm     91 % 0 mm
05:40 8.8 °C 7.2 °C 1020.9 hPa Calm     90 % 0 mm
05:45 8.8 °C 7.2 °C 1020.9 hPa Calm     90 % 0 mm
05:50 8.6 °C 7.1 °C 1020.9 hPa Calm     90 % 0 mm
05:55 8.7 °C 7.3 °C 1021.2 hPa Calm     91 % 0 mm
06:00 8.7 °C 7.2 °C 1021.2 hPa Calm     90 % 0 mm
06:05 8.7 °C 7.2 °C 1021.2 hPa Calm     90 % 0 mm
06:10 8.6 °C 7.1 °C 1021.2 hPa Calm     90 % 0 mm
06:15 8.6 °C 7.2 °C 1021.2 hPa Calm   1.6 km/h 91 % 0 mm
06:20 8.8 °C 7.4 °C 1021.2 hPa Calm   1.6 km/h 91 % 0 mm
06:25 8.9 °C 7.5 °C 1021.6 hPa Calm   1.6 km/h 91 % 0 mm
06:30 9.1 °C 7.7 °C 1021.6 hPa Calm   1.6 km/h 91 % 0 mm
06:35 9.2 °C 7.6 °C 1021.6 hPa Calm   1.6 km/h 90 % 0 mm
06:40 9.3 °C 7.6 °C 1021.6 hPa WNW 1.6 km/h 1.6 km/h 89 % 0 mm
06:45 9.5 °C 7.6 °C 1021.6 hPa Calm   1.6 km/h 88 % 0 mm
06:50 9.6 °C 7.7 °C 1021.6 hPa Calm   1.6 km/h 88 % 0 mm
06:55 9.6 °C 7.5 °C 1021.9 hPa Calm   1.6 km/h 87 % 0 mm
07:00 9.6 °C 7.4 °C 1021.9 hPa Calm   1.6 km/h 86 % 0 mm
07:05 9.6 °C 7.5 °C 1021.9 hPa Calm   1.6 km/h 87 % 0 mm
07:10 9.6 °C 7.5 °C 1021.9 hPa WNW 1.6 km/h 1.6 km/h 87 % 0 mm
07:15 9.5 °C 7.4 °C 1021.9 hPa Calm   1.6 km/h 87 % 0 mm
07:20 9.5 °C 7.4 °C 1022.2 hPa Calm   1.6 km/h 87 % 0 mm
07:25 9.4 °C 7.3 °C 1022.2 hPa Calm   1.6 km/h 87 % 0 mm
07:30 9.4 °C 7.3 °C 1022.2 hPa Calm     87 % 0 mm
07:35 9.3 °C 7.2 °C 1022.6 hPa Calm     87 % 0 mm
07:40 9.3 °C 7.2 °C 1022.6 hPa Calm     87 % 0 mm
07:45 9.6 °C 7.7 °C 1022.6 hPa Calm   1.6 km/h 88 % 0 mm
07:50 10.1 °C 8 °C 1022.9 hPa Calm   1.6 km/h 87 % 0 mm
07:55 10.8 °C 8.7 °C 1022.9 hPa Calm   1.6 km/h 87 % 0 mm
08:00 11.3 °C 9.2 °C 1022.9 hPa Calm   1.6 km/h 87 % 0 mm
08:05 11.9 °C 9.8 °C 1023.2 hPa Calm     87 % 0 mm
08:10 12.7 °C 10.1 °C 1023.2 hPa Calm     84 % 0 mm
08:11 12.9 °C 10.4 °C 1023.2 hPa Calm     85 % 0 mm
08:16 13.1 °C 9.4 °C 1023.2 hPa WNW 1.6 km/h 4.8 km/h 78 % 0 mm
08:21 13.2 °C 8.9 °C 1023.2 hPa NW 3.2 km/h 4.8 km/h 75 % 0 mm
08:26 13.5 °C 9.2 °C 1023.2 hPa NW 1.6 km/h 4.8 km/h 75 % 0 mm
08:27 13.6 °C 9.3 °C 1023.2 hPa North 3.2 km/h 4.8 km/h 75 % 0 mm
08:32 13.9 °C 9.3 °C 1023.2 hPa NW 4.8 km/h 6.4 km/h 74 % 0 mm
08:37 14.2 °C 9.4 °C 1023.6 hPa NNW 1.6 km/h 6.4 km/h 73 % 0 mm
08:42 14.8 °C 9.8 °C 1023.6 hPa NW 1.6 km/h 6.4 km/h 72 % 0 mm
08:47 15.3 °C 9.6 °C 1023.6 hPa NW 1.6 km/h 6.4 km/h 69 % 0 mm
08:52 15.8 °C 9.7 °C 1023.6 hPa WNW 1.6 km/h 3.2 km/h 67 % 0 mm
08:57 16.3 °C 9.5 °C 1023.9 hPa NNW 3.2 km/h 3.2 km/h 64 % 0 mm
09:02 16.4 °C 9.3 °C 1023.9 hPa NW 1.6 km/h 3.2 km/h 63 % 0 mm
09:07 16.8 °C 9.2 °C 1023.9 hPa Calm   3.2 km/h 61 % 0 mm
09:12 17.4 °C 10 °C 1023.9 hPa Calm   3.2 km/h 62 % 0 mm
09:17 18.1 °C 9.2 °C 1024.3 hPa Calm   3.2 km/h 56 % 0 mm
09:22 18.6 °C 9.6 °C 1024.3 hPa NW 1.6 km/h 3.2 km/h 56 % 0 mm
09:27 18.6 °C 9.4 °C 1024.3 hPa Calm   3.2 km/h 55 % 0 mm
09:32 18.9 °C 9.7 °C 1024.3 hPa Calm   3.2 km/h 55 % 0 mm
09:37 19.3 °C 8.6 °C 1024.3 hPa NNW 1.6 km/h 3.2 km/h 50 % 0 mm
09:42 19.3 °C 8.3 °C 1024.3 hPa NNE 1.6 km/h 4.8 km/h 49 % 0 mm
09:47 19.4 °C 7.8 °C 1024.6 hPa NNW 4.8 km/h 4.8 km/h 47 % 0 mm
09:52 19.5 °C 7.9 °C 1024.6 hPa Calm   4.8 km/h 47 % 0 mm
09:57 19.8 °C 7.8 °C 1024.3 hPa Calm   4.8 km/h 46 % 0 mm
10:02 20.4 °C 7.4 °C 1024.6 hPa Calm   4.8 km/h 43 % 0 mm
10:07 20.7 °C 7.3 °C 1024.6 hPa Calm   3.2 km/h 42 % 0 mm
10:12 20.7 °C 7.3 °C 1024.6 hPa NW 1.6 km/h 3.2 km/h 42 % 0 mm
10:17 21 °C 7.6 °C 1024.9 hPa ENE 1.6 km/h 3.2 km/h 42 % 0 mm
10:22 21.4 °C 8 °C 1024.9 hPa NNE 1.6 km/h 3.2 km/h 42 % 0 mm
10:27 21.6 °C 8.1 °C 1024.9 hPa NW 1.6 km/h 4.8 km/h 42 % 0 mm
10:32 21.9 °C 8.8 °C 1024.9 hPa East 4.8 km/h 4.8 km/h 43 % 0 mm
10:37 21.8 °C 8 °C 1024.9 hPa ENE 3.2 km/h 6.4 km/h 41 % 0 mm
10:42 21.8 °C 7.6 °C 1024.9 hPa Calm   6.4 km/h 40 % 0 mm
10:43 21.8 °C 7.6 °C 1024.9 hPa Calm   6.4 km/h 40 % 0 mm
10:48 22.3 °C 8.8 °C 1024.9 hPa ENE 1.6 km/h 6.4 km/h 42 % 0 mm
10:53 22.6 °C 6.4 °C 1024.9 hPa East 1.6 km/h 6.4 km/h 35 % 0 mm
10:58 22.6 °C 3.7 °C 1024.9 hPa NNE 1.6 km/h 4.8 km/h 29 % 0 mm
11:03 22.5 °C 2 °C 1024.6 hPa NW 3.2 km/h 6.4 km/h 26 % 0 mm
11:08 22.5 °C 4.1 °C 1024.6 hPa Calm   6.4 km/h 30 % 0 mm
11:13 23.1 °C 5.5 °C 1024.6 hPa WSW 1.6 km/h 6.4 km/h 32 % 0 mm
11:18 23.3 °C 3.8 °C 1024.6 hPa WNW 6.4 km/h 6.4 km/h 28 % 0 mm
11:23 22.8 °C 2.8 °C 1024.6 hPa NW 3.2 km/h 8 km/h 27 % 0 mm
11:28 22.6 °C 3.7 °C 1024.3 hPa WSW 3.2 km/h 9.7 km/h 29 % 0 mm
11:33 22.9 °C 2.4 °C 1024.3 hPa NW 4.8 km/h 9.7 km/h 26 % 0 mm
11:38 22.6 °C 2.7 °C 1024.3 hPa NNW 1.6 km/h 11.3 km/h 27 % 0 mm
11:43 22.6 °C 4.1 °C 1024.3 hPa SW 1.6 km/h 11.3 km/h 30 % 0 mm
11:48 23 °C 4.5 °C 1024.3 hPa NNW 4.8 km/h 11.3 km/h 30 % 0 mm
11:53 23.2 °C 5.6 °C 1024.3 hPa SE 3.2 km/h 11.3 km/h 32 % 0 mm
11:58 23.6 °C 5 °C 1024.3 hPa NE 4.8 km/h 9.7 km/h 30 % 0 mm
12:03 23.7 °C 3.6 °C 1024.3 hPa NW 3.2 km/h 11.3 km/h 27 % 0 mm
12:08 23.3 °C 4.3 °C 1024.3 hPa NNE 1.6 km/h 11.3 km/h 29 % 0 mm
12:13 23.4 °C 4.8 °C 1023.9 hPa NNW 3.2 km/h 11.3 km/h 30 % 0 mm
12:18 23.6 °C 4.5 °C 1023.9 hPa SSW 1.6 km/h 11.3 km/h 29 % 0 mm
12:19 23.7 °C 4.6 °C 1023.9 hPa SW 4.8 km/h 11.3 km/h 29 % 0 mm
12:24 23.7 °C 3.6 °C 1024.3 hPa NW 3.2 km/h 11.3 km/h 27 % 0 mm
12:29 23.7 °C 5.6 °C 1023.9 hPa WSW 1.6 km/h 11.3 km/h 31 % 0 mm
12:34 23.9 °C 4.8 °C 1023.9 hPa NNW 6.4 km/h 9.7 km/h 29 % 0 mm
12:39 23.7 °C 6 °C 1023.9 hPa SSW 1.6 km/h 9.7 km/h 32 % 0 mm
12:44 24.1 °C 5.4 °C 1023.9 hPa NNW 6.4 km/h 9.7 km/h 30 % 0 mm
12:49 23.6 °C 3 °C 1023.9 hPa North 3.2 km/h 11.3 km/h 26 % 0 mm
12:54 23.5 °C 4.9 °C 1023.6 hPa ESE 4.8 km/h 12.9 km/h 30 % 0 mm
12:59 24 °C 3.8 °C 1023.6 hPa Calm   12.9 km/h 27 % 0 mm
13:04 24.2 °C 5.5 °C 1023.6 hPa NNE 1.6 km/h 12.9 km/h 30 % 0 mm
13:09 23.9 °C 2.1 °C 1023.6 hPa NNW 8 km/h 8 km/h 24 % 0 mm
13:14 23.7 °C 3.1 °C 1023.6 hPa Calm   16.1 km/h 26 % 0 mm
13:19 24 °C 3.3 °C 1023.2 hPa WNW 4.8 km/h 16.1 km/h 26 % 0 mm
13:24 24.4 °C 4.7 °C 1023.2 hPa NW 3.2 km/h 16.1 km/h 28 % 0 mm
13:29 24.5 °C 3.7 °C 1023.2 hPa NNW 4.8 km/h 11.3 km/h 26 % 0 mm
13:34 24.5 °C 5.8 °C 1023.2 hPa West 3.2 km/h 11.3 km/h 30 % 0 mm
13:39 24.7 °C 4.4 °C 1023.2 hPa North 4.8 km/h 8 km/h 27 % 0 mm
13:44 24.9 °C 3.5 °C 1023.2 hPa WNW 3.2 km/h 9.7 km/h 25 % 0 mm
13:48 25 °C 6.7 °C 1023.2 hPa NNE 1.6 km/h 9.7 km/h 31 % 0 mm
13:51 24.8 °C 4 °C 1023.2 hPa North 9.7 km/h 14.5 km/h 26 % 0 mm
13:56 24.4 °C 3.1 °C 1023.2 hPa North 9.7 km/h 14.5 km/h 25 % 0 mm
14:01 24.4 °C 3.7 °C 1022.9 hPa SE 3.2 km/h 14.5 km/h 26 % 0 mm
14:06 24.8 °C 5.6 °C 1022.9 hPa Calm   14.5 km/h 29 % 0 mm
14:11 25.2 °C 4.3 °C 1022.9 hPa West 4.8 km/h 11.3 km/h 26 % 0 mm
14:16 24.9 °C 4.1 °C 1022.9 hPa West 1.6 km/h 14.5 km/h 26 % 0 mm
14:21 24.8 °C 3.4 °C 1022.9 hPa NNW 6.4 km/h 14.5 km/h 25 % 0 mm
14:26 24.7 °C 3.3 °C 1022.9 hPa NNW 6.4 km/h 14.5 km/h 25 % 0 mm
14:31 24.7 °C 3.3 °C 1022.9 hPa SE 1.6 km/h 11.3 km/h 25 % 0 mm
14:36 24.9 °C 1.7 °C 1022.6 hPa NNE 3.2 km/h 11.3 km/h 22 % 0 mm
14:41 24.7 °C 3.3 °C 1022.6 hPa ENE 3.2 km/h 11.3 km/h 25 % 0 mm
14:46 24.8 °C 5.1 °C 1022.6 hPa West 1.6 km/h 11.3 km/h 28 % 0 mm
14:51 25.4 °C 4.5 °C 1022.2 hPa NNW 4.8 km/h 11.3 km/h 26 % 0 mm
14:56 25.4 °C 4.5 °C 1022.2 hPa NNW 1.6 km/h 8 km/h 26 % 0 mm
15:01 25.4 °C 4.5 °C 1022.2 hPa West 8 km/h 11.3 km/h 26 % 0 mm
15:06 25.1 °C 4.2 °C 1022.2 hPa NNW 9.7 km/h 16.1 km/h 26 % 0 mm
15:11 25 °C 3.6 °C 1022.2 hPa SW 1.6 km/h 16.1 km/h 25 % 0 mm
15:16 25.2 °C 3.8 °C 1022.2 hPa West 3.2 km/h 16.1 km/h 25 % 0 mm
15:21 25.1 °C 3.7 °C 1021.9 hPa Calm   12.9 km/h 25 % 0 mm
15:26 25.2 °C 4.9 °C 1021.9 hPa East 3.2 km/h 12.9 km/h 27 % 0 mm
15:31 25.3 °C 5 °C 1021.6 hPa NNW 3.2 km/h 11.3 km/h 27 % 0 mm
15:36 25.4 °C 3.4 °C 1021.6 hPa NW 9.7 km/h 11.3 km/h 24 % 0 mm
15:41 25.2 °C 4.3 °C 1021.6 hPa NW 3.2 km/h 11.3 km/h 26 % 0 mm
15:46 25.4 °C 3.4 °C 1021.6 hPa WNW 16.1 km/h 16.1 km/h 24 % 0 mm
15:51 25.2 °C 5.4 °C 1021.6 hPa NW 6.4 km/h 16.1 km/h 28 % 0 mm
15:56 25.4 °C 4.5 °C 1021.6 hPa NE 3.2 km/h 16.1 km/h 26 % 0 mm
16:01 25.5 °C 5.1 °C 1021.2 hPa WNW 1.6 km/h 16.1 km/h 27 % 0 mm
16:06 25.6 °C 4.7 °C 1021.6 hPa WNW 4.8 km/h 9.7 km/h 26 % 0 mm
16:11 25.5 °C 5.1 °C 1021.6 hPa Calm   8 km/h 27 % 0 mm
16:16 25.5 °C 4 °C 1021.2 hPa NW 3.2 km/h 8 km/h 25 % 0 mm
16:21 25.3 °C 2.7 °C 1021.2 hPa NNW 3.2 km/h 9.7 km/h 23 % 0 mm
16:26 25.4 °C 3.9 °C 1020.9 hPa ENE 4.8 km/h 9.7 km/h 25 % 0 mm
16:31 25.5 °C 4 °C 1021.2 hPa South 1.6 km/h 9.7 km/h 25 % 0 mm
16:36 25.6 °C 3.5 °C 1020.9 hPa WNW 8 km/h 12.9 km/h 24 % 0 mm
16:41 25.5 °C 2.8 °C 1020.9 hPa NW 6.4 km/h 12.9 km/h 23 % 0 mm
16:47 25.5 °C 4 °C 1020.9 hPa North 14.5 km/h 14.5 km/h 25 % 0 mm
16:52 25.5 °C 3.4 °C 1020.9 hPa WNW 4.8 km/h 14.5 km/h 24 % 0 mm
16:57 25.3 °C 3.3 °C 1020.9 hPa NW 4.8 km/h 14.5 km/h 24 % 0 mm
17:02 25.3 °C 3.9 °C 1020.9 hPa NNW 8 km/h 14.5 km/h 25 % 0 mm
17:07 25.3 °C 3.9 °C 1020.9 hPa NNW 3.2 km/h 11.3 km/h 25 % 0 mm
17:12 25.2 °C 2 °C 1020.9 hPa Calm   11.3 km/h 22 % 0 mm
17:17 25.2 °C 2.6 °C 1020.9 hPa Calm   11.3 km/h 23 % 0 mm
17:22 25.4 °C 3.9 °C 1020.5 hPa Calm   8 km/h 25 % 0 mm
17:27 25.7 °C 3.6 °C 1020.5 hPa Calm   8 km/h 24 % 0 mm
17:32 25.9 °C 3.8 °C 1020.5 hPa NW 1.6 km/h 6.4 km/h 24 % 0 mm
17:37 25.5 °C 2.8 °C 1020.5 hPa NNW 3.2 km/h 9.7 km/h 23 % 0 mm
17:42 25.6 °C 3.5 °C 1020.5 hPa WNW 1.6 km/h 9.7 km/h 24 % 0 mm
17:47 25.6 °C 4.1 °C 1020.5 hPa NW 8 km/h 9.7 km/h 25 % 0 mm
17:52 25.2 °C 2.6 °C 1020.5 hPa NNW 1.6 km/h 9.7 km/h 23 % 0 mm
17:57 25.2 °C 3.2 °C 1020.5 hPa NW 4.8 km/h 9.7 km/h 24 % 0 mm
18:02 24.9 °C 2.3 °C 1020.2 hPa NNW 6.4 km/h 11.3 km/h 23 % 0 mm
18:07 24.8 °C 3.4 °C 1020.5 hPa NW 8 km/h 11.3 km/h 25 % 0 mm
18:12 24.7 °C 2.8 °C 1020.5 hPa NW 6.4 km/h 11.3 km/h 24 % 0 mm
18:16 24.3 °C 2.4 °C 1020.2 hPa NW 4.8 km/h 11.3 km/h 24 % 0 mm
18:21 24.2 °C 1.8 °C 1020.5 hPa NE 1.6 km/h 11.3 km/h 23 % 0 mm
18:26 24.2 °C 1.8 °C 1020.5 hPa NW 3.2 km/h 11.3 km/h 23 % 0 mm
18:31 24.2 °C 2.4 °C 1020.5 hPa NW 1.6 km/h 9.7 km/h 24 % 0 mm
18:36 24.1 °C 2.8 °C 1020.5 hPa NW 4.8 km/h 9.7 km/h 25 % 0 mm
18:42 23.9 °C 2.7 °C 1020.5 hPa WNW 1.6 km/h 8 km/h 25 % 0 mm
18:47 23.8 °C 2.6 °C 1020.5 hPa WNW 1.6 km/h 8 km/h 25 % 0 mm
18:52 23.8 °C 2 °C 1020.5 hPa NW 1.6 km/h 8 km/h 24 % 0 mm
18:57 23.9 °C 2.1 °C 1020.5 hPa NW 1.6 km/h 8 km/h 24 % 0 mm
19:02 24.2 °C 2.9 °C 1020.5 hPa NW 1.6 km/h 8 km/h 25 % 0 mm
19:07 24.3 °C 3 °C 1020.5 hPa Calm   6.4 km/h 25 % 0 mm
19:12 24 °C 3.8 °C 1020.5 hPa NW 1.6 km/h 6.4 km/h 27 % 0 mm
19:17 23.7 °C 3.6 °C 1020.5 hPa NW 1.6 km/h 8 km/h 27 % 0 mm
19:22 23.4 °C 3.3 °C 1020.9 hPa NW 1.6 km/h 8 km/h 27 % 0 mm
19:27 23.2 °C 3.7 °C 1020.5 hPa Calm   8 km/h 28 % 0 mm
19:32 22.9 °C 3.9 °C 1020.5 hPa NW 1.6 km/h 4.8 km/h 29 % 0 mm
19:37 22.6 °C 3.7 °C 1020.9 hPa Calm   4.8 km/h 29 % 0 mm
19:42 22.2 °C 3.8 °C 1020.9 hPa Calm   3.2 km/h 30 % 0 mm
19:47 21.8 °C 3.9 °C 1020.9 hPa Calm   1.6 km/h 31 % 0 mm
19:52 21.4 °C 4 °C 1020.9 hPa Calm     32 % 0 mm
19:57 21 °C 4.5 °C 1020.9 hPa Calm     34 % 0 mm
20:02 20.7 °C 4.3 °C 1020.9 hPa Calm     34 % 0 mm
20:07 20.4 °C 4.8 °C 1020.9 hPa Calm     36 % 0 mm
20:12 20.1 °C 4.6 °C 1020.9 hPa Calm     36 % 0 mm
20:17 19.7 °C 5 °C 1020.9 hPa Calm     38 % 0 mm
20:22 19.4 °C 5.1 °C 1020.9 hPa Calm     39 % 0 mm
20:27 19.2 °C 5.3 °C 1020.9 hPa Calm     40 % 0 mm
20:32 18.8 °C 5.3 °C 1020.9 hPa Calm     41 % 0 mm
20:37 18.6 °C 5.8 °C 1020.9 hPa Calm     43 % 0 mm
20:42 18.3 °C 5.8 °C 1020.9 hPa Calm     44 % 0 mm
20:47 18.1 °C 6.3 °C 1020.9 hPa Calm     46 % 0 mm
20:52 17.8 °C 6.3 °C 1020.9 hPa Calm     47 % 0 mm
20:57 17.7 °C 6.2 °C 1020.9 hPa Calm     47 % 0 mm
21:02 17.6 °C 6.5 °C 1020.9 hPa Calm     48 % 0 mm
21:07 17.5 °C 6.7 °C 1020.9 hPa Calm     49 % 0 mm
21:12 17.3 °C 6.5 °C 1020.9 hPa Calm     49 % 0 mm
21:17 17.2 °C 6.7 °C 1021.2 hPa Calm     50 % 0 mm
21:22 17.1 °C 6.6 °C 1021.2 hPa Calm     50 % 0 mm
21:27 16.9 °C 6.7 °C 1021.2 hPa Calm     51 % 0 mm
21:32 16.8 °C 6.6 °C 1021.2 hPa Calm     51 % 0 mm
21:37 16.5 °C 6.3 °C 1021.2 hPa Calm     51 % 0 mm
21:42 16.2 °C 6.1 °C 1021.2 hPa Calm     51 % 0 mm
21:47 15.9 °C 6.3 °C 1021.2 hPa Calm     53 % 0 mm
21:52 16.1 °C 7.1 °C 1021.2 hPa Calm     55 % 0 mm
21:57 16.1 °C 7.1 °C 1021.2 hPa Calm     55 % 0 mm
22:02 15.9 °C 6.9 °C 1021.6 hPa Calm     55 % 0 mm
22:07 15.6 °C 6.9 °C 1021.6 hPa Calm     56 % 0 mm
22:12 15.4 °C 7.2 °C 1021.6 hPa Calm     58 % 0 mm
22:17 15.4 °C 7.7 °C 1021.6 hPa Calm     60 % 0 mm
22:22 15.6 °C 7.9 °C 1021.9 hPa Calm     60 % 0 mm
22:27 15.6 °C 7.9 °C 1021.9 hPa Calm     60 % 0 mm
22:32 15.5 °C 7.5 °C 1021.9 hPa Calm     59 % 0 mm
22:37 15.2 °C 7.5 °C 1021.9 hPa Calm     60 % 0 mm
22:42 15 °C 7.5 °C 1021.9 hPa Calm     61 % 0 mm
22:47 14.9 °C 7.4 °C 1021.9 hPa Calm     61 % 0 mm
22:52 14.7 °C 7.7 °C 1021.9 hPa Calm     63 % 0 mm
22:57 14.8 °C 8.1 °C 1022.2 hPa Calm     64 % 0 mm
23:02 14.7 °C 8 °C 1022.2 hPa Calm     64 % 0 mm
23:07 14.6 °C 7.9 °C 1022.2 hPa Calm     64 % 0 mm
23:12 14.3 °C 7.6 °C 1022.2 hPa Calm     64 % 0 mm
23:17 14.2 °C 8.2 °C 1022.2 hPa Calm     67 % 0 mm
23:22 14.4 °C 8.6 °C 1022.2 hPa Calm     68 % 0 mm
23:27 14.6 °C 8.5 °C 1022.2 hPa Calm     67 % 0 mm
23:32 14.6 °C 8.3 °C 1022.2 hPa Calm     66 % 0 mm
23:37 14.3 °C 8 °C 1022.2 hPa Calm     66 % 0 mm
23:42 13.9 °C 8.1 °C 1022.2 hPa Calm     68 % 0 mm
23:47 13.8 °C 8.2 °C 1022.6 hPa Calm     69 % 0 mm
23:52 13.8 °C 8.6 °C 1022.6 hPa Calm     71 % 0 mm
23:57 13.8 °C 8.6 °C 1022.6 hPa South 4.8 km/h   71 % 0 mm
Spring, Texas: Villages of Bridgestone
Compliments of Weather Underground - 2.75 mb

Script developed by  Jim McMurry - jmcmurry@mwt.net Adapted for the template by  Wim van der Kuil - Leuven-Template.eu

You find our weather info also at:

UK Metoffice

WeatherCloud

Weather Underground

Mid-South Weather Network

AWEKAS

Citizen Weather Observer Program (CWOP)

HAMweather, WeatherForYou, PWS Weather

Equipment we use:

Weather-station
Davis Vantage Vue

Weather-program
Meteohub

Weather-server
Debian 7.9 x86 (Guest)

Provider
DreamHost

Davis Vantage Vue

Meteohub

Debian 7.9 x86 (Guest)

DreamHost